createdAt,value
2022-09-27T00:00:32.464Z,9.757698
2022-09-27T00:01:32.487Z,9.757833
2022-09-27T00:02:32.525Z,9.757824
2022-09-27T00:03:32.471Z,9.757689
2022-09-27T00:04:32.436Z,9.757648
2022-09-27T00:05:32.426Z,9.757676
2022-09-27T00:06:32.421Z,9.757495
2022-09-27T00:07:32.414Z,9.757547
2022-09-27T00:08:32.444Z,9.757720
2022-09-27T00:09:32.401Z,9.757680
2022-09-27T00:10:32.383Z,9.757708
2022-09-27T00:11:32.378Z,9.757736
2022-09-27T00:12:32.373Z,9.757777
2022-09-27T00:13:32.391Z,9.757718
2022-09-27T00:14:32.357Z,9.757504
2022-09-27T00:15:32.401Z,9.757272
2022-09-27T00:16:32.335Z,9.757755
2022-09-27T00:17:32.327Z,9.757751
2022-09-27T00:18:33.345Z,9.757614
2022-09-27T00:19:32.311Z,9.757380
2022-09-27T00:20:32.303Z,9.757634
2022-09-27T00:21:32.306Z,9.757563
2022-09-27T00:22:32.284Z,9.757525
2022-09-27T00:23:32.310Z,9.757810
2022-09-27T00:24:32.273Z,9.757681
2022-09-27T00:25:32.258Z,9.757866
2022-09-27T00:26:32.259Z,9.757788
2022-09-27T00:27:32.249Z,9.757668
2022-09-27T00:28:32.271Z,9.757717
2022-09-27T00:29:32.228Z,9.757792
2022-09-27T00:30:32.219Z,9.757800
2022-09-27T00:31:32.306Z,9.757525
2022-09-27T00:32:32.214Z,9.757410
2022-09-27T00:33:32.239Z,9.757515
2022-09-27T00:34:32.194Z,9.757607
2022-09-27T00:35:32.185Z,9.757957
2022-09-27T00:36:32.176Z,9.757385
2022-09-27T00:37:32.166Z,9.757503
2022-09-27T00:38:32.189Z,9.757840
2022-09-27T00:39:32.155Z,9.757698
2022-09-27T00:40:32.186Z,9.757797
2022-09-27T00:41:32.135Z,9.757881
2022-09-27T00:42:32.134Z,9.757753
2022-09-27T00:43:32.126Z,9.757552
2022-09-27T00:44:32.140Z,9.757843
2022-09-27T00:45:32.106Z,9.757983
2022-09-27T00:46:32.182Z,9.757753
2022-09-27T00:47:32.087Z,9.757844
2022-09-27T00:48:32.078Z,9.758034
2022-09-27T00:49:32.107Z,9.757796
2022-09-27T00:50:32.067Z,9.757827
2022-09-27T00:51:32.068Z,9.757676
2022-09-27T00:52:32.049Z,9.757749
2022-09-27T00:53:32.034Z,9.757697
2022-09-27T00:54:32.056Z,9.757797
2022-09-27T00:55:32.020Z,9.757765
2022-09-27T00:56:32.016Z,9.757732
2022-09-27T00:57:32.004Z,9.757580
2022-09-27T00:58:31.990Z,9.757513
2022-09-27T00:59:32.015Z,9.757284
2022-09-27T01:00:31.987Z,9.757248
2022-09-27T01:01:31.999Z,9.757317
2022-09-27T01:02:32.016Z,9.757257
2022-09-27T01:03:31.953Z,9.757490
2022-09-27T01:04:31.971Z,9.757504
2022-09-27T01:05:31.938Z,9.757445
2022-09-27T01:06:31.926Z,9.757505
2022-09-27T01:07:32.918Z,9.757602
2022-09-27T01:08:31.917Z,9.757340
2022-09-27T01:09:31.929Z,9.757522
2022-09-27T01:10:31.899Z,9.757234
2022-09-27T01:11:31.893Z,9.757318
2022-09-27T01:12:31.878Z,9.757339
2022-09-27T01:13:31.872Z,9.757402
2022-09-27T01:14:31.895Z,9.757437
2022-09-27T01:15:31.896Z,9.757417
2022-09-27T01:16:31.847Z,9.757371
2022-09-27T01:17:31.838Z,9.757364
2022-09-27T01:18:31.834Z,9.757460
2022-09-27T01:19:31.853Z,9.757427
2022-09-27T01:20:31.821Z,9.757363
2022-09-27T01:21:31.807Z,9.757386
2022-09-27T01:22:31.802Z,9.757429
2022-09-27T01:23:31.818Z,9.757251
2022-09-27T01:24:31.804Z,9.757238
2022-09-27T01:25:31.771Z,9.757373
2022-09-27T01:26:31.764Z,9.757361
2022-09-27T01:27:31.760Z,9.757348
2022-09-27T01:28:31.749Z,9.757398
2022-09-27T01:29:31.766Z,9.757573
2022-09-27T01:30:31.727Z,9.757366
2022-09-27T01:31:31.752Z,9.757406
2022-09-27T01:32:31.736Z,9.757414
2022-09-27T01:33:31.713Z,9.757471
2022-09-27T01:34:31.723Z,9.757482
2022-09-27T01:35:31.686Z,9.757416
2022-09-27T01:36:31.680Z,9.757430
2022-09-27T01:37:31.668Z,9.757465
2022-09-27T01:38:31.664Z,9.757255
2022-09-27T01:39:31.682Z,9.757433
2022-09-27T01:40:31.671Z,9.757403
2022-09-27T01:41:31.642Z,9.757399
2022-09-27T01:42:31.627Z,9.757668
2022-09-27T01:43:31.628Z,9.757536
2022-09-27T01:44:31.645Z,9.757472
2022-09-27T01:45:31.608Z,9.757368
2022-09-27T01:46:31.660Z,9.757279
2022-09-27T01:47:31.594Z,9.757370
2022-09-27T01:48:31.586Z,9.757386
2022-09-27T01:49:31.599Z,9.757366
2022-09-27T01:50:31.569Z,9.757343
2022-09-27T01:51:31.559Z,9.757366
2022-09-27T01:52:31.549Z,9.757369
2022-09-27T01:53:31.549Z,9.757440
2022-09-27T01:54:31.561Z,9.757430
2022-09-27T01:55:31.529Z,9.757396
2022-09-27T01:56:31.521Z,9.757384
2022-09-27T01:57:31.512Z,9.757434
2022-09-27T01:58:31.505Z,9.757442
2022-09-27T01:59:31.531Z,9.757464
2022-09-27T02:00:31.492Z,9.757452
2022-09-27T02:01:31.574Z,9.757394
2022-09-27T02:02:31.523Z,9.757487
2022-09-27T02:03:31.473Z,9.757481
2022-09-27T02:04:31.482Z,9.757529
2022-09-27T02:05:31.452Z,9.757457
2022-09-27T02:06:31.431Z,9.757454
2022-09-27T02:07:31.431Z,9.757463
2022-09-27T02:08:31.426Z,9.757478
2022-09-27T02:09:31.444Z,9.757449
2022-09-27T02:10:31.411Z,9.757665
2022-09-27T02:11:31.394Z,9.757560
2022-09-27T02:12:31.390Z,9.757482
2022-09-27T02:13:31.380Z,9.757480
2022-09-27T02:14:31.399Z,9.757415
2022-09-27T02:15:31.422Z,9.757352
2022-09-27T02:16:31.355Z,9.757462
2022-09-27T02:17:31.335Z,9.757396
2022-09-27T02:18:32.341Z,9.757469
2022-09-27T02:19:31.359Z,9.757474
2022-09-27T02:20:31.317Z,9.757619
2022-09-27T02:21:31.312Z,9.757460
2022-09-27T02:22:31.302Z,9.757410
2022-09-27T02:23:31.296Z,9.757379
2022-09-27T02:24:31.314Z,9.757739
2022-09-27T02:25:31.281Z,9.757523
2022-09-27T02:26:31.272Z,9.757451
2022-09-27T02:27:31.263Z,9.757347
2022-09-27T02:28:31.248Z,9.757354
2022-09-27T02:29:31.269Z,9.757427
2022-09-27T02:30:31.277Z,9.757483
2022-09-27T02:31:31.275Z,9.757282
2022-09-27T02:32:31.216Z,9.757323
2022-09-27T02:33:31.205Z,9.757396
2022-09-27T02:34:31.225Z,9.757501
2022-09-27T02:35:31.194Z,9.757470
2022-09-27T02:36:31.184Z,9.757412
2022-09-27T02:37:31.170Z,9.757442
2022-09-27T02:38:31.172Z,9.757488
2022-09-27T02:39:31.192Z,9.757393
2022-09-27T02:40:31.233Z,9.757442
2022-09-27T02:41:31.148Z,9.757487
2022-09-27T02:42:31.149Z,9.757320
2022-09-27T02:43:31.133Z,9.757590
2022-09-27T02:44:31.150Z,9.757484
2022-09-27T02:45:31.115Z,9.757505
2022-09-27T02:46:31.137Z,9.757581
2022-09-27T02:47:31.096Z,9.757655
2022-09-27T02:48:31.074Z,9.757498
2022-09-27T02:49:32.106Z,9.757458
2022-09-27T02:50:31.073Z,9.757585
2022-09-27T02:51:31.061Z,9.757586
2022-09-27T02:52:31.054Z,9.757307
2022-09-27T02:53:31.046Z,9.757365
2022-09-27T02:54:31.068Z,9.757524
2022-09-27T02:55:31.024Z,9.757599
2022-09-27T02:56:31.018Z,9.757775
2022-09-27T02:57:31.010Z,9.757649
2022-09-27T02:58:30.995Z,9.757698
2022-09-27T02:59:31.017Z,9.757512
2022-09-27T03:00:30.986Z,9.757502
2022-09-27T03:01:31.002Z,9.757573
2022-09-27T03:02:31.995Z,9.757530
2022-09-27T03:03:30.962Z,9.757741
2022-09-27T03:04:30.984Z,9.757738
2022-09-27T03:05:30.946Z,9.757847
2022-09-27T03:06:30.936Z,9.758357
2022-09-27T03:07:30.928Z,9.758399
2022-09-27T03:08:30.926Z,9.758124
2022-09-27T03:09:30.946Z,9.757845
2022-09-27T03:10:30.920Z,9.757830
2022-09-27T03:11:30.900Z,9.757833
2022-09-27T03:12:30.905Z,9.757788
2022-09-27T03:13:30.886Z,9.757689
2022-09-27T03:14:30.900Z,9.757633
2022-09-27T03:15:30.875Z,9.757620
2022-09-27T03:16:30.918Z,9.757599
2022-09-27T03:17:30.854Z,9.757605
2022-09-27T03:18:30.844Z,9.757549
2022-09-27T03:19:30.869Z,9.757376
2022-09-27T03:20:30.857Z,9.757654
2022-09-27T03:21:30.813Z,9.757689
2022-09-27T03:22:30.810Z,9.757808
2022-09-27T03:23:30.802Z,9.757649
2022-09-27T03:24:30.831Z,9.757622
2022-09-27T03:25:30.790Z,9.757724
2022-09-27T03:26:30.778Z,9.757665
2022-09-27T03:27:30.766Z,9.757785
2022-09-27T03:28:30.764Z,9.757852
2022-09-27T03:29:30.746Z,9.757791
2022-09-27T03:30:30.803Z,9.757902
2022-09-27T03:31:31.824Z,9.757780
2022-09-27T03:32:30.720Z,9.757565
2022-09-27T03:33:30.718Z,9.757586
2022-09-27T03:34:30.714Z,9.757515
2022-09-27T03:35:30.730Z,9.757583
2022-09-27T03:36:30.688Z,9.757575
2022-09-27T03:37:30.681Z,9.757551
2022-09-27T03:38:30.672Z,9.757434
2022-09-27T03:39:30.677Z,9.757551
2022-09-27T03:40:30.755Z,9.757604
2022-09-27T03:41:30.652Z,9.757615
2022-09-27T03:42:30.644Z,9.757469
2022-09-27T03:43:30.633Z,9.757373
2022-09-27T03:44:30.630Z,9.757485
2022-09-27T03:45:30.648Z,9.757395
2022-09-27T03:46:30.707Z,9.757378
2022-09-27T03:47:30.595Z,9.757374
2022-09-27T03:48:30.590Z,9.757276
2022-09-27T03:49:30.611Z,9.757100
2022-09-27T03:50:30.602Z,9.757383
2022-09-27T03:51:30.576Z,9.757559
2022-09-27T03:52:30.563Z,9.757717
2022-09-27T03:53:30.561Z,9.757442
2022-09-27T03:54:30.545Z,9.757769
2022-09-27T03:55:30.602Z,9.757609
2022-09-27T03:56:30.529Z,9.757220
2022-09-27T03:57:30.523Z,9.757462
2022-09-27T03:58:30.522Z,9.757334
2022-09-27T03:59:30.516Z,9.757277
2022-09-27T04:00:30.528Z,9.757480
2022-09-27T04:01:30.566Z,9.757507
2022-09-27T04:02:30.537Z,9.757539
2022-09-27T04:03:30.490Z,9.757526
2022-09-27T04:04:30.464Z,9.757477
2022-09-27T04:05:30.521Z,9.757544
2022-09-27T04:06:30.455Z,9.757627
2022-09-27T04:07:30.447Z,9.757388
2022-09-27T04:08:30.455Z,9.757419
2022-09-27T04:09:30.437Z,9.757453
2022-09-27T04:10:30.463Z,9.757539
2022-09-27T04:11:30.419Z,9.757500
2022-09-27T04:12:30.400Z,9.757426
2022-09-27T04:13:30.413Z,9.757423
2022-09-27T04:14:30.388Z,9.757430
2022-09-27T04:15:30.428Z,9.757469
2022-09-27T04:16:30.408Z,9.757285
2022-09-27T04:17:30.363Z,9.757410
2022-09-27T04:18:30.358Z,9.757411
2022-09-27T04:19:30.345Z,9.757432
2022-09-27T04:20:30.375Z,9.757359
2022-09-27T04:21:30.335Z,9.757407
2022-09-27T04:22:30.320Z,9.757524
2022-09-27T04:23:30.433Z,9.757482
2022-09-27T04:24:30.307Z,9.757436
2022-09-27T04:25:30.334Z,9.757341
2022-09-27T04:26:30.294Z,9.757381
2022-09-27T04:27:30.295Z,9.757426
2022-09-27T04:28:30.277Z,9.757371
2022-09-27T04:29:30.303Z,9.757450
2022-09-27T04:30:30.340Z,9.757479
2022-09-27T04:31:30.316Z,9.757481
2022-09-27T04:32:30.250Z,9.757489
2022-09-27T04:33:30.239Z,9.757570
2022-09-27T04:34:30.273Z,9.757427
2022-09-27T04:35:30.223Z,9.757459
2022-09-27T04:36:30.218Z,9.757472
2022-09-27T04:37:30.207Z,9.757419
2022-09-27T04:38:30.197Z,9.757314
2022-09-27T04:39:30.220Z,9.757360
2022-09-27T04:40:30.237Z,9.757346
2022-09-27T04:41:30.183Z,9.757472
2022-09-27T04:42:30.165Z,9.757438
2022-09-27T04:43:30.151Z,9.757372
2022-09-27T04:44:30.170Z,9.757410
2022-09-27T04:45:30.127Z,9.757461
2022-09-27T04:46:30.196Z,9.757616
2022-09-27T04:47:30.119Z,9.757955
2022-09-27T04:48:30.116Z,9.758020
2022-09-27T04:49:30.129Z,9.757924
2022-09-27T04:50:33.255Z,9.757617
2022-09-27T04:51:32.084Z,9.757622
2022-09-27T04:52:30.077Z,9.757388
2022-09-27T04:53:30.076Z,9.757414
2022-09-27T04:54:30.080Z,9.757372
2022-09-27T04:55:30.052Z,9.757226
2022-09-27T04:56:30.051Z,9.757195
2022-09-27T04:57:30.034Z,9.757350
2022-09-27T04:58:30.033Z,9.757288
2022-09-27T04:59:30.046Z,9.757336
2022-09-27T05:00:30.012Z,9.757502
2022-09-27T05:01:30.057Z,9.757379
2022-09-27T05:02:30.011Z,9.757379
2022-09-27T05:03:29.993Z,9.757528
2022-09-27T05:04:30.015Z,9.757360
2022-09-27T05:05:29.969Z,9.757330
2022-09-27T05:06:29.963Z,9.757380
2022-09-27T05:07:29.967Z,9.757398
2022-09-27T05:08:29.946Z,9.757463
2022-09-27T05:09:29.995Z,9.757355
2022-09-27T05:10:29.929Z,9.757354
2022-09-27T05:11:29.917Z,9.757356
2022-09-27T05:12:29.913Z,9.757443
2022-09-27T05:13:29.905Z,9.757473
2022-09-27T05:14:29.936Z,9.757332
2022-09-27T05:15:29.887Z,9.757381
2022-09-27T05:16:32.105Z,9.757348
2022-09-27T05:17:29.866Z,9.757283
2022-09-27T05:18:29.863Z,9.757459
2022-09-27T05:19:29.892Z,9.757473
2022-09-27T05:20:29.857Z,9.757385
2022-09-27T05:21:29.834Z,9.757450
2022-09-27T05:22:29.828Z,9.757420
2022-09-27T05:23:29.829Z,9.757399
2022-09-27T05:24:29.840Z,9.757490
2022-09-27T05:25:29.796Z,9.757535
2022-09-27T05:26:29.819Z,9.757679
2022-09-27T05:27:29.787Z,9.757542
2022-09-27T05:28:29.780Z,9.757480
2022-09-27T05:29:29.798Z,9.757314
2022-09-27T05:30:29.793Z,9.757431
2022-09-27T05:31:29.797Z,9.757750
2022-09-27T05:32:29.745Z,9.757847
2022-09-27T05:33:29.741Z,9.757718
2022-09-27T05:34:29.765Z,9.757684
2022-09-27T05:35:29.724Z,9.757627
2022-09-27T05:36:29.715Z,9.757432
2022-09-27T05:37:29.705Z,9.757328
2022-09-27T05:38:29.692Z,9.757379
2022-09-27T05:39:29.728Z,9.757364
2022-09-27T05:40:40.818Z,9.757383
2022-09-27T05:41:31.815Z,9.757631
2022-09-27T05:42:29.660Z,9.757513
2022-09-27T05:43:29.656Z,9.757511
2022-09-27T05:44:29.644Z,9.757525
2022-09-27T05:45:29.663Z,9.757134
2022-09-27T05:46:29.693Z,9.757351
2022-09-27T05:47:29.616Z,9.757365
2022-09-27T05:48:29.610Z,9.757339
2022-09-27T05:49:29.598Z,9.757258
2022-09-27T05:50:29.625Z,9.757420
2022-09-27T05:51:29.583Z,9.757401
2022-09-27T05:52:29.580Z,9.757551
2022-09-27T05:53:29.557Z,9.757420
2022-09-27T05:54:29.555Z,9.757457
2022-09-27T05:55:29.579Z,9.757278
2022-09-27T05:56:29.543Z,9.757323
2022-09-27T05:57:29.533Z,9.757335
2022-09-27T05:58:29.535Z,9.757406
2022-09-27T05:59:29.546Z,9.757483
2022-09-27T06:00:29.596Z,9.757419
2022-09-27T06:01:29.515Z,9.757466
2022-09-27T06:02:29.526Z,9.757361
2022-09-27T06:03:29.486Z,9.757702
2022-09-27T06:04:29.502Z,9.757371
2022-09-27T06:05:29.461Z,9.757489
2022-09-27T06:06:29.471Z,9.757607
2022-09-27T06:07:29.449Z,9.757513
2022-09-27T06:08:29.448Z,9.757563
2022-09-27T06:09:29.462Z,9.757519
2022-09-27T06:10:29.424Z,9.757587
2022-09-27T06:11:29.420Z,9.757496
2022-09-27T06:12:29.415Z,9.757401
2022-09-27T06:13:29.398Z,9.757434
2022-09-27T06:14:29.424Z,9.757633
2022-09-27T06:15:29.387Z,9.757440
2022-09-27T06:16:29.416Z,9.757474
2022-09-27T06:17:29.366Z,9.757392
2022-09-27T06:18:29.354Z,9.757343
2022-09-27T06:19:29.395Z,9.757306
2022-09-27T06:20:29.347Z,9.757377
2022-09-27T06:21:29.331Z,9.757388
2022-09-27T06:22:29.318Z,9.757448
2022-09-27T06:23:29.315Z,9.757416
2022-09-27T06:24:29.297Z,9.757387
2022-09-27T06:25:29.328Z,9.757318
2022-09-27T06:26:29.306Z,9.757377
2022-09-27T06:27:29.284Z,9.757423
2022-09-27T06:28:29.274Z,9.757424
2022-09-27T06:29:29.294Z,9.757440
2022-09-27T06:30:29.397Z,9.757487
2022-09-27T06:31:29.247Z,9.757540
2022-09-27T06:32:29.249Z,9.757796
2022-09-27T06:33:29.237Z,9.757998
2022-09-27T06:34:29.250Z,9.757918
2022-09-27T06:35:29.215Z,9.757616
2022-09-27T06:36:29.204Z,9.757596
2022-09-27T06:37:30.202Z,9.757573
2022-09-27T06:38:29.195Z,9.757599
2022-09-27T06:39:29.210Z,9.757631
2022-09-27T06:40:29.222Z,9.757667
2022-09-27T06:41:29.166Z,9.757447
2022-09-27T06:42:29.159Z,9.757311
2022-09-27T06:43:29.157Z,9.757543
2022-09-27T06:44:29.167Z,9.757562
2022-09-27T06:45:29.126Z,9.757630
2022-09-27T06:46:29.188Z,9.757553
2022-09-27T06:47:29.157Z,9.757519
2022-09-27T06:48:29.108Z,9.757539
2022-09-27T06:49:29.132Z,9.757516
2022-09-27T06:50:29.090Z,9.757485
2022-09-27T06:51:29.081Z,9.757522
2022-09-27T06:52:29.075Z,9.757529
2022-09-27T06:53:29.072Z,9.757475
2022-09-27T06:54:29.079Z,9.757432
2022-09-27T06:55:29.049Z,9.757463
2022-09-27T06:56:29.039Z,9.757508
2022-09-27T06:57:30.036Z,9.757510
2022-09-27T06:58:29.025Z,9.757490
2022-09-27T06:59:29.048Z,9.757670
2022-09-27T07:00:29.004Z,9.757682
2022-09-27T07:01:29.181Z,9.757547
2022-09-27T07:02:29.006Z,9.757472
2022-09-27T07:03:32.991Z,9.757436
2022-09-27T07:04:31.006Z,9.757465
2022-09-27T07:05:28.979Z,9.757455
2022-09-27T07:06:28.966Z,9.757429
2022-09-27T07:07:29.059Z,9.757470
2022-09-27T07:08:28.952Z,9.757505
2022-09-27T07:09:28.980Z,9.757508
2022-09-27T07:10:28.925Z,9.757459
2022-09-27T07:11:28.929Z,9.757480
2022-09-27T07:12:28.916Z,9.757421
2022-09-27T07:13:28.905Z,9.757374
2022-09-27T07:14:28.932Z,9.757411
2022-09-27T07:15:28.889Z,9.757539
2022-09-27T07:16:28.923Z,9.757438
2022-09-27T07:17:28.876Z,9.757437
2022-09-27T07:18:28.868Z,9.757503
2022-09-27T07:19:28.866Z,9.757437
2022-09-27T07:20:28.880Z,9.757433
2022-09-27T07:21:28.844Z,9.757456
2022-09-27T07:22:28.830Z,9.757463
2022-09-27T07:23:28.821Z,9.757462
2022-09-27T07:25:01.768Z,9.757436
2022-09-27T07:25:28.811Z,9.757332
2022-09-27T07:26:28.798Z,9.757378
2022-09-27T07:27:28.786Z,9.757404
2022-09-27T07:28:28.784Z,9.757296
2022-09-27T07:29:28.816Z,9.757291
2022-09-27T07:30:28.812Z,9.757339
2022-09-27T07:31:28.761Z,9.757395
2022-09-27T07:32:28.751Z,9.757411
2022-09-27T07:33:28.747Z,9.757360
2022-09-27T07:34:28.733Z,9.757369
2022-09-27T07:35:28.757Z,9.757428
2022-09-27T07:36:28.719Z,9.757594
2022-09-27T07:37:28.704Z,9.757491
2022-09-27T07:38:28.705Z,9.757467
2022-09-27T07:39:28.690Z,9.757468
2022-09-27T07:40:28.760Z,9.757418
2022-09-27T07:41:28.688Z,9.757427
2022-09-27T07:42:28.664Z,9.757407
2022-09-27T07:43:28.673Z,9.757547
2022-09-27T07:44:28.660Z,9.757596
2022-09-27T07:45:28.674Z,9.757491
2022-09-27T07:46:28.638Z,9.757401
2022-09-27T07:47:28.625Z,9.757420
2022-09-27T07:48:28.623Z,9.757326
2022-09-27T07:49:28.609Z,9.757362
2022-09-27T07:50:28.629Z,9.757498
2022-09-27T07:51:28.588Z,9.757577
2022-09-27T07:52:28.588Z,9.757660
2022-09-27T07:53:28.580Z,9.757515
2022-09-27T07:54:28.569Z,9.757534
2022-09-27T07:55:28.585Z,9.757552
2022-09-27T07:56:28.550Z,9.757394
2022-09-27T07:57:29.503Z,9.757397
2022-09-27T07:58:28.540Z,9.757498
2022-09-27T07:59:28.526Z,9.757502
2022-09-27T08:00:28.553Z,9.757578
2022-09-27T08:01:28.547Z,9.757397
2022-09-27T08:02:28.573Z,9.757628
2022-09-27T08:03:28.494Z,9.757524
2022-09-27T08:04:28.491Z,9.757593
2022-09-27T08:05:28.509Z,9.757560
2022-09-27T08:06:28.473Z,9.757505
2022-09-27T08:07:28.462Z,9.757566
2022-09-27T08:08:28.450Z,9.757815
2022-09-27T08:09:28.443Z,9.757801
2022-09-27T08:10:28.467Z,9.757599
2022-09-27T08:11:28.425Z,9.757476
2022-09-27T08:12:28.436Z,9.757528
2022-09-27T08:13:28.414Z,9.757340
2022-09-27T08:14:28.410Z,9.757689
2022-09-27T08:15:28.421Z,9.757405
2022-09-27T08:16:28.448Z,9.757339
2022-09-27T08:17:28.389Z,9.757222
2022-09-27T08:18:28.371Z,9.757552
2022-09-27T08:19:28.365Z,9.757857
2022-09-27T08:20:28.380Z,9.757443
2022-09-27T08:21:28.347Z,9.757645
2022-09-27T08:22:28.341Z,9.757920
2022-09-27T08:23:28.326Z,9.757909
2022-09-27T08:24:28.328Z,9.757185
2022-09-27T08:25:28.340Z,9.756684
2022-09-27T08:26:28.301Z,9.757320
2022-09-27T08:27:28.291Z,9.757463
2022-09-27T08:28:28.293Z,9.757818
2022-09-27T08:29:28.279Z,9.757842
2022-09-27T08:30:28.299Z,9.757632
2022-09-27T08:31:28.306Z,9.757830
2022-09-27T08:32:28.256Z,9.757621
2022-09-27T08:33:32.371Z,9.757627
2022-09-27T08:34:29.246Z,9.757654
2022-09-27T08:35:28.259Z,9.757523
2022-09-27T08:36:28.217Z,9.757617
2022-09-27T08:37:28.214Z,9.757516
2022-09-27T08:38:28.203Z,9.757463
2022-09-27T08:39:28.193Z,9.757516
2022-09-27T08:40:28.311Z,9.757501
2022-09-27T08:41:28.186Z,9.757472
2022-09-27T08:42:28.171Z,9.757483
2022-09-27T08:43:28.156Z,9.757537
2022-09-27T08:44:28.153Z,9.757447
2022-09-27T08:45:28.193Z,9.757514
2022-09-27T08:46:28.137Z,9.757714
2022-09-27T08:47:28.123Z,9.757823
2022-09-27T08:48:28.121Z,9.757607
2022-09-27T08:49:28.109Z,9.757541
2022-09-27T08:50:28.131Z,9.757189
2022-09-27T08:51:28.102Z,9.757431
2022-09-27T08:52:28.083Z,9.757514
2022-09-27T08:53:28.095Z,9.757590
2022-09-27T08:54:28.068Z,9.757572
2022-09-27T08:55:28.093Z,9.757495
2022-09-27T08:56:28.056Z,9.757561
2022-09-27T08:57:28.048Z,9.757480
2022-09-27T08:58:28.035Z,9.757479
2022-09-27T08:59:28.030Z,9.757494
2022-09-27T09:00:28.051Z,9.757513
2022-09-27T09:01:29.194Z,9.757556
2022-09-27T09:02:29.050Z,9.757526
2022-09-27T09:03:28.001Z,9.757469
2022-09-27T09:04:27.987Z,9.757540
2022-09-27T09:05:28.003Z,9.757505
2022-09-27T09:06:27.972Z,9.757452
2022-09-27T09:07:27.966Z,9.757374
2022-09-27T09:08:27.962Z,9.757425
2022-09-27T09:09:27.946Z,9.757321
2022-09-27T09:10:27.965Z,9.757495
2022-09-27T09:11:27.936Z,9.757586
2022-09-27T09:12:27.925Z,9.757517
2022-09-27T09:13:27.905Z,9.757587
2022-09-27T09:14:27.899Z,9.757592
2022-09-27T09:15:27.921Z,9.757558
2022-09-27T09:16:27.896Z,9.757529
2022-09-27T09:17:27.884Z,9.757574
2022-09-27T09:18:27.870Z,9.757691
2022-09-27T09:19:27.864Z,9.757666
2022-09-27T09:20:27.895Z,9.757557
2022-09-27T09:21:27.848Z,9.757617
2022-09-27T09:22:27.845Z,9.757360
2022-09-27T09:23:27.863Z,9.757607
2022-09-27T09:24:27.827Z,9.757518
2022-09-27T09:25:27.816Z,9.757508
2022-09-27T09:26:27.807Z,9.757418
2022-09-27T09:27:27.827Z,9.757633
2022-09-27T09:28:27.800Z,9.757642
2022-09-27T09:29:27.786Z,9.757461
2022-09-27T09:30:27.775Z,9.757224
2022-09-27T09:31:27.838Z,9.757633
2022-09-27T09:32:28.790Z,9.757701
2022-09-27T09:33:27.761Z,9.757690
2022-09-27T09:34:27.746Z,9.757482
2022-09-27T09:35:27.740Z,9.757365
2022-09-27T09:36:27.723Z,9.757520
2022-09-27T09:37:27.822Z,9.757543
2022-09-27T09:38:27.713Z,9.757362
2022-09-27T09:39:27.705Z,9.757323
2022-09-27T09:40:27.742Z,9.757455
2022-09-27T09:41:27.688Z,9.757512
2022-09-27T09:42:27.713Z,9.757384
2022-09-27T09:43:27.671Z,9.757416
2022-09-27T09:44:27.664Z,9.757483
2022-09-27T09:45:27.713Z,9.757427
2022-09-27T09:46:27.640Z,9.757466
2022-09-27T09:47:28.661Z,9.757422
2022-09-27T09:48:27.631Z,9.757351
2022-09-27T09:49:27.620Z,9.757549
2022-09-27T09:50:27.608Z,9.757524
2022-09-27T09:51:27.593Z,9.757459
2022-09-27T09:52:27.617Z,9.757488
2022-09-27T09:53:27.591Z,9.757574
2022-09-27T09:54:27.574Z,9.757565
2022-09-27T09:55:27.565Z,9.757477
2022-09-27T09:56:27.560Z,9.757477
2022-09-27T09:57:27.585Z,9.757491
2022-09-27T09:58:27.552Z,9.757409
2022-09-27T09:59:27.539Z,9.757399
2022-09-27T10:00:27.534Z,9.757440
2022-09-27T10:01:27.569Z,9.757409
2022-09-27T10:02:27.625Z,9.757401
2022-09-27T10:03:27.507Z,9.757579
2022-09-27T10:04:27.503Z,9.757527
2022-09-27T10:05:27.489Z,9.757546
2022-09-27T10:06:27.480Z,9.757404
2022-09-27T10:07:27.499Z,9.757402
2022-09-27T10:08:27.467Z,9.757420
2022-09-27T10:09:27.455Z,9.757415
2022-09-27T10:10:27.448Z,9.757341
2022-09-27T10:11:27.478Z,9.757429
2022-09-27T10:12:27.468Z,9.757441
2022-09-27T10:13:27.422Z,9.757480
2022-09-27T10:14:27.419Z,9.757484
2022-09-27T10:15:27.407Z,9.757415
2022-09-27T10:16:27.475Z,9.757407
2022-09-27T10:17:27.398Z,9.757399
2022-09-27T10:18:27.384Z,9.757471
2022-09-27T10:19:27.389Z,9.757565
2022-09-27T10:20:27.366Z,9.757577
2022-09-27T10:21:27.405Z,9.757399
2022-09-27T10:22:27.356Z,9.757473
2022-09-27T10:23:27.346Z,9.757456
2022-09-27T10:24:27.341Z,9.757499
2022-09-27T10:25:27.329Z,9.757520
2022-09-27T10:26:27.324Z,9.757618
2022-09-27T10:27:27.345Z,9.757450
2022-09-27T10:28:27.311Z,9.757442
2022-09-27T10:29:27.306Z,9.757032
2022-09-27T10:30:27.295Z,9.757450
2022-09-27T10:31:27.354Z,9.757480
2022-09-27T10:32:27.328Z,9.757495
2022-09-27T10:33:27.335Z,9.757418
2022-09-27T10:34:27.256Z,9.757465
2022-09-27T10:35:27.246Z,9.757516
2022-09-27T10:36:27.242Z,9.757463
2022-09-27T10:37:27.263Z,9.757475
2022-09-27T10:38:27.224Z,9.757556
2022-09-27T10:39:27.222Z,9.757496
2022-09-27T10:40:27.246Z,9.757624
2022-09-27T10:41:27.195Z,9.757580
2022-09-27T10:42:27.227Z,9.757461
2022-09-27T10:43:29.664Z,9.757496
2022-09-27T10:44:28.171Z,9.757598
2022-09-27T10:45:27.199Z,9.757572
2022-09-27T10:46:27.164Z,9.757535
2022-09-27T10:47:27.180Z,9.757561
2022-09-27T10:48:27.142Z,9.757578
2022-09-27T10:49:27.143Z,9.757535
2022-09-27T10:50:49.097Z,9.757540
2022-09-27T10:51:29.156Z,9.757534
2022-09-27T10:52:27.114Z,9.757574
2022-09-27T10:53:27.108Z,9.757437
2022-09-27T10:54:27.100Z,9.757477
2022-09-27T10:55:27.091Z,9.757472
2022-09-27T10:56:27.086Z,9.757506
2022-09-27T10:57:27.107Z,9.757505
2022-09-27T10:58:27.072Z,9.757505
2022-09-27T10:59:27.060Z,9.757534
2022-09-27T11:00:27.058Z,9.757559
2022-09-27T11:01:27.122Z,9.757552
2022-09-27T11:02:27.127Z,9.757530
2022-09-27T11:03:27.018Z,9.757516
2022-09-27T11:04:27.062Z,9.757507
2022-09-27T11:05:27.014Z,9.757529
2022-09-27T11:06:26.999Z,9.757533
2022-09-27T11:07:27.022Z,9.757571
2022-09-27T11:08:26.986Z,9.757497
2022-09-27T11:09:26.974Z,9.757480
2022-09-27T11:10:26.967Z,9.757565
2022-09-27T11:11:26.962Z,9.757537
2022-09-27T11:12:26.981Z,9.757463
2022-09-27T11:13:26.941Z,9.757445
2022-09-27T11:14:26.936Z,9.757849
2022-09-27T11:15:26.931Z,9.757642
2022-09-27T11:16:27.040Z,9.757524
2022-09-27T11:17:26.942Z,9.757434
2022-09-27T11:18:26.938Z,9.757437
2022-09-27T11:19:26.903Z,9.757482
2022-09-27T11:20:26.888Z,9.757461
2022-09-27T11:21:26.883Z,9.757499
2022-09-27T11:22:26.899Z,9.757480
2022-09-27T11:23:26.873Z,9.757517
2022-09-27T11:24:26.854Z,9.757452
2022-09-27T11:25:31.577Z,9.757469
2022-09-27T11:26:28.853Z,9.757513
2022-09-27T11:27:26.852Z,9.757496
2022-09-27T11:28:26.832Z,9.757467
2022-09-27T11:29:26.813Z,9.757444
2022-09-27T11:30:26.806Z,9.757346
2022-09-27T11:31:26.834Z,9.757450
2022-09-27T11:32:26.813Z,9.757484
2022-09-27T11:33:26.779Z,9.757460
2022-09-27T11:34:26.773Z,9.757433
2022-09-27T11:35:26.758Z,9.757470
2022-09-27T11:36:26.757Z,9.757507
2022-09-27T11:37:26.780Z,9.757488
2022-09-27T11:38:50.947Z,9.757408
2022-09-27T11:39:28.725Z,9.757435
2022-09-27T11:40:26.731Z,9.757319
2022-09-27T11:41:26.711Z,9.757387
2022-09-27T11:42:26.728Z,9.757456
2022-09-27T11:43:26.702Z,9.757510
2022-09-27T11:44:26.684Z,9.757481